AAL1354 KCLT-KDCA
Flight info
| Callsign | AAL1354 |
|---|---|
| Flight time | 0h 56m |
| Altitude | 39000 |
| Route | KILNS5 AUDII WAVES CAPSS3 |
| Aircraft | A20N/M-SDE2E3FGHIRWXY/LB1 |
Departure
| Time | 2026-05-06 00:33 |
|---|---|
| Airport | Charlotte Douglas International Airport (KCLT) |
Arrival
| Time | 2026-05-06 01:29 |
|---|---|
| Airport | Ronald Reagan Washington National Airport (KDCA) |
| Time | Latitude | Longitude | Altitude | Speed | Heading |
|---|---|---|---|---|---|
| 2026-05-06 00:05 | 35.21922 | -80.94319 | 732 ft | 0 kts | 76° |
| 2026-05-06 00:18 | 35.21921 | -80.94325 | 732 ft | 1 kts | 76° |
| 2026-05-06 00:18 | 35.21919 | -80.94334 | 732 ft | 1 kts | 76° |
| 2026-05-06 00:18 | 35.21917 | -80.94343 | 732 ft | 1 kts | 76° |
| 2026-05-06 00:19 | 35.21916 | -80.94349 | 732 ft | 0 kts | 76° |
| 2026-05-06 00:19 | 35.21915 | -80.94352 | 732 ft | 1 kts | 76° |
| 2026-05-06 00:19 | 35.21912 | -80.94374 | 732 ft | 3 kts | 107° |
| 2026-05-06 00:19 | 35.21921 | -80.94388 | 729 ft | 0 kts | 169° |
| 2026-05-06 00:21 | 35.21916 | -80.94387 | 732 ft | 1 kts | 171° |
| 2026-05-06 00:21 | 35.21899 | -80.94384 | 731 ft | 4 kts | 171° |
| 2026-05-06 00:22 | 35.21865 | -80.94387 | 732 ft | 6 kts | 189° |
| 2026-05-06 00:22 | 35.21846 | -80.94387 | 732 ft | 1 kts | 177° |
| 2026-05-06 00:22 | 35.21839 | -80.94387 | 732 ft | 0 kts | 177° |
| 2026-05-06 00:23 | 35.21835 | -80.94390 | 732 ft | 2 kts | 200° |
| 2026-05-06 00:24 | 35.21773 | -80.94398 | 732 ft | 13 kts | 169° |
| 2026-05-06 00:24 | 35.21684 | -80.94370 | 732 ft | 4 kts | 155° |
| 2026-05-06 00:24 | 35.21657 | -80.94354 | 732 ft | 6 kts | 152° |
| 2026-05-06 00:24 | 35.21660 | -80.94315 | 732 ft | 6 kts | 75° |
| 2026-05-06 00:25 | 35.21665 | -80.94245 | 732 ft | 10 kts | 90° |
| 2026-05-06 00:25 | 35.21697 | -80.94161 | 732 ft | 13 kts | 50° |
| 2026-05-06 00:25 | 35.21765 | -80.94070 | 732 ft | 16 kts | 47° |
| 2026-05-06 00:25 | 35.21819 | -80.93996 | 732 ft | 8 kts | 49° |
| 2026-05-06 00:26 | 35.21864 | -80.93930 | 731 ft | 11 kts | 56° |
| 2026-05-06 00:26 | 35.21866 | -80.93923 | 731 ft | 0 kts | 72° |
| 2026-05-06 00:27 | 35.21877 | -80.93919 | 732 ft | 3 kts | 7° |
| 2026-05-06 00:28 | 35.21904 | -80.93918 | 732 ft | 15 kts | 14° |
| 2026-05-06 00:28 | 35.22041 | -80.93799 | 732 ft | 17 kts | 349° |
| 2026-05-06 00:28 | 35.22164 | -80.93810 | 732 ft | 16 kts | 11° |
| 2026-05-06 00:28 | 35.22204 | -80.93738 | 732 ft | 6 kts | 34° |
| 2026-05-06 00:29 | 35.22273 | -80.93736 | 733 ft | 11 kts | 356° |
| 2026-05-06 00:29 | 35.22334 | -80.93740 | 733 ft | 10 kts | 356° |
| 2026-05-06 00:29 | 35.22346 | -80.93741 | 733 ft | 3 kts | 356° |
| 2026-05-06 00:29 | 35.22379 | -80.93743 | 733 ft | 7 kts | 357° |
| 2026-05-06 00:30 | 35.22384 | -80.93744 | 733 ft | 0 kts | 357° |
| 2026-05-06 00:30 | 35.22389 | -80.93744 | 733 ft | 3 kts | 357° |
| 2026-05-06 00:30 | 35.22422 | -80.93748 | 733 ft | 7 kts | 354° |
| 2026-05-06 00:31 | 35.22474 | -80.93754 | 733 ft | 4 kts | 356° |
| 2026-05-06 00:31 | 35.22480 | -80.93752 | 733 ft | 2 kts | 14° |
| 2026-05-06 00:31 | 35.22500 | -80.93717 | 733 ft | 14 kts | 73° |
| 2026-05-06 00:31 | 35.22487 | -80.93623 | 734 ft | 6 kts | 160° |
| 2026-05-06 00:32 | 35.22425 | -80.93614 | 736 ft | 21 kts | 174° |
| 2026-05-06 00:32 | 35.22029 | -80.93582 | 735 ft | 90 kts | 176° |
| 2026-05-06 00:32 | 35.21217 | -80.93508 | 737 ft | 141 kts | 176° |
| 2026-05-06 00:32 | 35.20248 | -80.93424 | 1239 ft | 141 kts | 179° |
| 2026-05-06 00:33 | 35.19262 | -80.93412 | 1826 ft | 145 kts | 181° |
| 2026-05-06 00:33 | 35.18227 | -80.93314 | 2335 ft | 156 kts | 175° |
| 2026-05-06 00:33 | 35.17087 | -80.93139 | 2691 ft | 175 kts | 175° |
| 2026-05-06 00:33 | 35.15816 | -80.92942 | 2955 ft | 194 kts | 174° |
| 2026-05-06 00:34 | 35.14502 | -80.92256 | 3226 ft | 225 kts | 143° |
| 2026-05-06 00:34 | 35.13447 | -80.90747 | 3844 ft | 238 kts | 132° |
| 2026-05-06 00:34 | 35.12808 | -80.89645 | 4378 ft | 246 kts | 124° |
| 2026-05-06 00:34 | 35.12306 | -80.87530 | 4971 ft | 276 kts | 95° |
| 2026-05-06 00:35 | 35.12684 | -80.85187 | 5898 ft | 289 kts | 70° |
| 2026-05-06 00:35 | 35.13628 | -80.82984 | 6851 ft | 296 kts | 60° |
| 2026-05-06 00:35 | 35.15079 | -80.80124 | 8046 ft | 303 kts | 58° |
| 2026-05-06 00:35 | 35.16167 | -80.77894 | 8976 ft | 308 kts | 59° |
| 2026-05-06 00:36 | 35.16873 | -80.76373 | 9576 ft | 312 kts | 59° |
| 2026-05-06 00:36 | 35.17922 | -80.74020 | 10378 ft | 321 kts | 59° |
| 2026-05-06 00:36 | 35.19019 | -80.71524 | 10758 ft | 345 kts | 60° |
| 2026-05-06 00:36 | 35.19772 | -80.69798 | 10979 ft | 360 kts | 60° |
| 2026-05-06 00:37 | 35.19854 | -80.69610 | 11009 ft | 361 kts | 60° |
| 2026-05-06 00:37 | 35.20529 | -80.68053 | 11308 ft | 369 kts | 60° |
| 2026-05-06 00:37 | 35.21733 | -80.65264 | 12097 ft | 373 kts | 60° |
| 2026-05-06 00:37 | 35.22954 | -80.62432 | 12884 ft | 378 kts | 60° |
| 2026-05-06 00:38 | 35.24189 | -80.59568 | 13678 ft | 384 kts | 60° |
| 2026-05-06 00:38 | 35.25423 | -80.56707 | 14397 ft | 388 kts | 60° |
| 2026-05-06 00:38 | 35.26685 | -80.53780 | 15159 ft | 390 kts | 59° |
| 2026-05-06 00:38 | 35.27952 | -80.50839 | 15913 ft | 393 kts | 59° |
| 2026-05-06 00:39 | 35.29239 | -80.47857 | 16606 ft | 397 kts | 59° |
| 2026-05-06 00:39 | 35.30531 | -80.44859 | 17333 ft | 400 kts | 59° |
| 2026-05-06 00:39 | 35.31837 | -80.41823 | 18059 ft | 404 kts | 59° |
| 2026-05-06 00:39 | 35.33151 | -80.38764 | 18697 ft | 408 kts | 59° |
| 2026-05-06 00:40 | 35.34478 | -80.35674 | 19273 ft | 413 kts | 59° |
| 2026-05-06 00:40 | 35.35822 | -80.32541 | 19822 ft | 417 kts | 59° |
| 2026-05-06 00:40 | 35.37176 | -80.29380 | 20416 ft | 421 kts | 59° |
| 2026-05-06 00:40 | 35.38541 | -80.26193 | 20972 ft | 426 kts | 59° |
| 2026-05-06 00:41 | 35.39924 | -80.22960 | 21524 ft | 430 kts | 59° |
| 2026-05-06 00:41 | 35.41301 | -80.19738 | 22096 ft | 434 kts | 59° |
| 2026-05-06 00:41 | 35.42697 | -80.16435 | 22637 ft | 439 kts | 61° |
| 2026-05-06 00:41 | 35.43859 | -80.12952 | 23170 ft | 446 kts | 66° |
| 2026-05-06 00:42 | 35.44945 | -80.09364 | 23697 ft | 450 kts | 66° |
| 2026-05-06 00:42 | 35.46048 | -80.05750 | 24180 ft | 453 kts | 66° |
| 2026-05-06 00:42 | 35.47153 | -80.02135 | 24648 ft | 455 kts | 66° |
| 2026-05-06 00:42 | 35.48271 | -79.98472 | 25073 ft | 459 kts | 66° |
| 2026-05-06 00:43 | 35.49392 | -79.94797 | 25513 ft | 462 kts | 65° |
| 2026-05-06 00:43 | 35.50518 | -79.91097 | 25959 ft | 465 kts | 65° |
| 2026-05-06 00:43 | 35.51637 | -79.87415 | 26379 ft | 468 kts | 65° |
| 2026-05-06 00:43 | 35.52776 | -79.83658 | 26798 ft | 471 kts | 65° |
| 2026-05-06 00:44 | 35.53925 | -79.79883 | 27211 ft | 473 kts | 65° |
| 2026-05-06 00:44 | 35.55104 | -79.76106 | 27588 ft | 476 kts | 64° |
| 2026-05-06 00:44 | 35.56301 | -79.72302 | 27974 ft | 479 kts | 64° |
| 2026-05-06 00:44 | 35.57505 | -79.68473 | 28350 ft | 481 kts | 64° |
| 2026-05-06 00:45 | 35.58711 | -79.64621 | 28699 ft | 484 kts | 64° |
| 2026-05-06 00:45 | 35.59920 | -79.60748 | 29065 ft | 487 kts | 64° |
| 2026-05-06 00:45 | 35.61133 | -79.56853 | 29406 ft | 489 kts | 64° |
| 2026-05-06 00:45 | 35.62349 | -79.52937 | 29737 ft | 492 kts | 64° |
| 2026-05-06 00:46 | 35.63572 | -79.48997 | 30077 ft | 494 kts | 64° |
| 2026-05-06 00:46 | 35.64796 | -79.45046 | 30371 ft | 496 kts | 64° |
| 2026-05-06 00:46 | 35.66026 | -79.41067 | 30665 ft | 499 kts | 64° |
| 2026-05-06 00:46 | 35.67257 | -79.37131 | 30940 ft | 499 kts | 60° |
| 2026-05-06 00:47 | 35.68842 | -79.33376 | 31277 ft | 490 kts | 50° |
| 2026-05-06 00:47 | 35.70908 | -79.30134 | 31682 ft | 477 kts | 38° |
| 2026-05-06 00:47 | 35.73364 | -79.27474 | 32092 ft | 467 kts | 31° |
| 2026-05-06 00:47 | 35.75904 | -79.24994 | 32551 ft | 463 kts | 30° |
| 2026-05-06 00:48 | 35.78429 | -79.22565 | 33006 ft | 461 kts | 29° |
| 2026-05-06 00:48 | 35.80960 | -79.20144 | 33437 ft | 459 kts | 28° |
| 2026-05-06 00:48 | 35.83470 | -79.17745 | 33866 ft | 457 kts | 28° |
| 2026-05-06 00:48 | 35.85972 | -79.15350 | 34250 ft | 454 kts | 28° |
| 2026-05-06 00:49 | 35.88468 | -79.12959 | 34600 ft | 453 kts | 28° |
| 2026-05-06 00:49 | 35.90949 | -79.10579 | 34898 ft | 452 kts | 28° |
| 2026-05-06 00:49 | 35.93391 | -79.08233 | 34993 ft | 450 kts | 28° |
| 2026-05-06 00:50 | 35.98327 | -79.03486 | 35006 ft | 449 kts | 28° |
| 2026-05-06 00:50 | 36.03248 | -78.98746 | 35004 ft | 449 kts | 28° |
| 2026-05-06 00:51 | 36.08170 | -78.93995 | 35012 ft | 449 kts | 28° |
| 2026-05-06 00:51 | 36.13086 | -78.89244 | 35017 ft | 449 kts | 28° |
| 2026-05-06 00:52 | 36.18005 | -78.84481 | 35022 ft | 448 kts | 28° |
| 2026-05-06 00:52 | 36.22888 | -78.79746 | 35018 ft | 448 kts | 28° |
| 2026-05-06 00:53 | 36.27793 | -78.74982 | 35014 ft | 448 kts | 28° |
| 2026-05-06 00:53 | 36.32696 | -78.70211 | 35014 ft | 448 kts | 28° |
| 2026-05-06 00:54 | 36.37605 | -78.65428 | 35018 ft | 448 kts | 28° |
| 2026-05-06 00:54 | 36.42510 | -78.60639 | 35020 ft | 449 kts | 28° |
| 2026-05-06 00:55 | 36.47418 | -78.55840 | 35018 ft | 449 kts | 28° |
| 2026-05-06 00:55 | 36.52318 | -78.51041 | 35016 ft | 449 kts | 28° |
| 2026-05-06 00:56 | 36.57188 | -78.46263 | 35011 ft | 449 kts | 28° |
| 2026-05-06 00:56 | 36.62100 | -78.41435 | 34995 ft | 450 kts | 28° |
| 2026-05-06 00:57 | 36.66984 | -78.36624 | 34475 ft | 446 kts | 29° |
| 2026-05-06 00:57 | 36.69419 | -78.34229 | 33789 ft | 448 kts | 29° |
| 2026-05-06 00:57 | 36.71875 | -78.31814 | 32853 ft | 452 kts | 30° |
| 2026-05-06 00:57 | 36.74357 | -78.29359 | 31860 ft | 458 kts | 31° |
| 2026-05-06 00:58 | 36.76870 | -78.26888 | 30878 ft | 463 kts | 32° |
| 2026-05-06 00:58 | 36.79378 | -78.24421 | 30082 ft | 466 kts | 32° |
| 2026-05-06 00:58 | 36.81946 | -78.21883 | 29391 ft | 462 kts | 33° |
| 2026-05-06 00:58 | 36.84404 | -78.19442 | 29093 ft | 452 kts | 33° |
| 2026-05-06 00:59 | 36.86876 | -78.16988 | 29038 ft | 458 kts | 33° |
| 2026-05-06 00:59 | 36.91886 | -78.12017 | 28988 ft | 459 kts | 33° |
| 2026-05-06 01:00 | 36.96889 | -78.07038 | 28982 ft | 460 kts | 33° |
| 2026-05-06 01:00 | 37.01889 | -78.02052 | 28983 ft | 460 kts | 33° |
| 2026-05-06 01:01 | 37.06883 | -77.97063 | 28982 ft | 460 kts | 33° |
| 2026-05-06 01:01 | 37.11852 | -77.92091 | 28983 ft | 460 kts | 33° |
| 2026-05-06 01:02 | 37.16853 | -77.87079 | 28980 ft | 460 kts | 33° |
| 2026-05-06 01:02 | 37.19351 | -77.84572 | 28800 ft | 461 kts | 33° |
| 2026-05-06 01:02 | 37.21852 | -77.82060 | 28540 ft | 459 kts | 33° |
| 2026-05-06 01:02 | 37.23607 | -77.80296 | 28329 ft | 457 kts | 33° |
| 2026-05-06 01:03 | 37.26090 | -77.77799 | 28099 ft | 457 kts | 33° |
| 2026-05-06 01:03 | 37.28561 | -77.75312 | 27831 ft | 455 kts | 33° |
| 2026-05-06 01:03 | 37.31032 | -77.72823 | 27571 ft | 454 kts | 33° |
| 2026-05-06 01:03 | 37.33456 | -77.70380 | 27326 ft | 453 kts | 33° |
| 2026-05-06 01:04 | 37.35951 | -77.67864 | 26930 ft | 453 kts | 33° |
| 2026-05-06 01:04 | 37.38367 | -77.65425 | 26380 ft | 451 kts | 34° |
| 2026-05-06 01:04 | 37.40810 | -77.62956 | 25841 ft | 448 kts | 34° |
| 2026-05-06 01:04 | 37.43226 | -77.60510 | 25286 ft | 443 kts | 34° |
| 2026-05-06 01:05 | 37.45617 | -77.58089 | 24749 ft | 439 kts | 34° |
| 2026-05-06 01:05 | 37.48338 | -77.55331 | 24120 ft | 436 kts | 34° |
| 2026-05-06 01:05 | 37.50699 | -77.52938 | 23585 ft | 432 kts | 35° |
| 2026-05-06 01:05 | 37.53034 | -77.50570 | 22978 ft | 429 kts | 35° |
| 2026-05-06 01:06 | 37.55341 | -77.48227 | 22464 ft | 423 kts | 35° |
| 2026-05-06 01:06 | 37.57697 | -77.46071 | 21959 ft | 414 kts | 26° |
| 2026-05-06 01:06 | 37.60200 | -77.44528 | 21697 ft | 402 kts | 17° |
| 2026-05-06 01:06 | 37.62884 | -77.43504 | 21222 ft | 405 kts | 8° |
| 2026-05-06 01:07 | 37.65625 | -77.42672 | 20719 ft | 404 kts | 9° |
| 2026-05-06 01:07 | 37.68349 | -77.41834 | 20217 ft | 401 kts | 9° |
| 2026-05-06 01:07 | 37.71044 | -77.41002 | 19725 ft | 397 kts | 9° |
| 2026-05-06 01:07 | 37.73710 | -77.40177 | 19245 ft | 393 kts | 9° |
| 2026-05-06 01:08 | 37.76362 | -77.39358 | 18830 ft | 393 kts | 10° |
| 2026-05-06 01:08 | 37.79025 | -77.38537 | 18347 ft | 393 kts | 10° |
| 2026-05-06 01:08 | 37.81662 | -77.37721 | 17819 ft | 389 kts | 10° |
| 2026-05-06 01:08 | 37.84280 | -77.36909 | 17329 ft | 384 kts | 10° |
| 2026-05-06 01:09 | 37.86864 | -77.36107 | 16856 ft | 380 kts | 10° |
| 2026-05-06 01:09 | 37.89418 | -77.35313 | 16505 ft | 379 kts | 9° |
| 2026-05-06 01:09 | 37.91982 | -77.34578 | 16238 ft | 386 kts | 11° |
| 2026-05-06 01:09 | 37.94589 | -77.33708 | 15987 ft | 387 kts | 11° |
| 2026-05-06 01:10 | 37.97182 | -77.32844 | 15737 ft | 385 kts | 11° |
| 2026-05-06 01:10 | 37.99688 | -77.32052 | 15487 ft | 383 kts | 10° |
| 2026-05-06 01:10 | 38.02267 | -77.31273 | 15238 ft | 381 kts | 9° |
| 2026-05-06 01:10 | 38.04847 | -77.30515 | 14992 ft | 379 kts | 9° |
| 2026-05-06 01:11 | 38.07418 | -77.29771 | 14767 ft | 381 kts | 9° |
| 2026-05-06 01:11 | 38.09989 | -77.28995 | 14530 ft | 378 kts | 10° |
| 2026-05-06 01:11 | 38.12523 | -77.28188 | 14289 ft | 374 kts | 10° |
| 2026-05-06 01:11 | 38.15040 | -77.27387 | 14056 ft | 373 kts | 10° |
| 2026-05-06 01:12 | 38.17562 | -77.26586 | 13569 ft | 374 kts | 10° |
| 2026-05-06 01:12 | 38.20054 | -77.25797 | 13042 ft | 372 kts | 10° |
| 2026-05-06 01:12 | 38.22525 | -77.24950 | 12733 ft | 364 kts | 12° |
| 2026-05-06 01:12 | 38.24945 | -77.24023 | 12460 ft | 366 kts | 13° |
| 2026-05-06 01:13 | 38.27390 | -77.23068 | 12168 ft | 366 kts | 13° |
| 2026-05-06 01:13 | 38.29812 | -77.22126 | 11879 ft | 363 kts | 13° |
| 2026-05-06 01:13 | 38.32231 | -77.21196 | 11594 ft | 362 kts | 13° |
| 2026-05-06 01:13 | 38.34630 | -77.20281 | 11319 ft | 361 kts | 13° |
| 2026-05-06 01:14 | 38.39325 | -77.18487 | 10914 ft | 345 kts | 13° |
| 2026-05-06 01:14 | 38.41621 | -77.17602 | 10806 ft | 351 kts | 13° |
| 2026-05-06 01:14 | 38.43997 | -77.16685 | 10687 ft | 350 kts | 13° |
| 2026-05-06 01:15 | 38.46290 | -77.15796 | 10575 ft | 349 kts | 13° |
| 2026-05-06 01:15 | 38.48609 | -77.14899 | 10467 ft | 349 kts | 13° |
| 2026-05-06 01:15 | 38.50931 | -77.14002 | 10351 ft | 348 kts | 13° |
| 2026-05-06 01:15 | 38.53240 | -77.13108 | 10263 ft | 346 kts | 13° |
| 2026-05-06 01:16 | 38.55517 | -77.12225 | 10175 ft | 336 kts | 13° |
| 2026-05-06 01:16 | 38.57708 | -77.11372 | 10047 ft | 323 kts | 13° |
| 2026-05-06 01:16 | 38.59822 | -77.10552 | 9880 ft | 312 kts | 13° |
| 2026-05-06 01:16 | 38.61858 | -77.09770 | 9260 ft | 311 kts | 13° |
| 2026-05-06 01:17 | 38.63941 | -77.08971 | 8947 ft | 310 kts | 13° |
| 2026-05-06 01:17 | 38.66013 | -77.08177 | 8616 ft | 310 kts | 13° |
| 2026-05-06 01:17 | 38.68057 | -77.07395 | 8392 ft | 299 kts | 11° |
| 2026-05-06 01:17 | 38.70016 | -77.06965 | 8256 ft | 279 kts | 359° |
| 2026-05-06 01:18 | 38.71886 | -77.06795 | 8112 ft | 265 kts | 359° |
| 2026-05-06 01:18 | 38.73684 | -77.06617 | 7832 ft | 258 kts | 359° |
| 2026-05-06 01:18 | 38.75501 | -77.06454 | 7258 ft | 262 kts | 354° |
| 2026-05-06 01:18 | 38.77212 | -77.06889 | 6862 ft | 243 kts | 326° |
| 2026-05-06 01:19 | 38.78602 | -77.07989 | 6571 ft | 231 kts | 318° |
| 2026-05-06 01:19 | 38.79953 | -77.09126 | 6325 ft | 232 kts | 318° |
| 2026-05-06 01:19 | 38.81308 | -77.10240 | 6235 ft | 232 kts | 319° |
| 2026-05-06 01:19 | 38.82676 | -77.11351 | 6235 ft | 233 kts | 318° |
| 2026-05-06 01:20 | 38.83921 | -77.12630 | 6222 ft | 225 kts | 306° |
| 2026-05-06 01:20 | 38.85032 | -77.14033 | 6068 ft | 224 kts | 306° |
| 2026-05-06 01:20 | 38.86137 | -77.15419 | 5780 ft | 228 kts | 307° |
| 2026-05-06 01:20 | 38.87285 | -77.16852 | 5455 ft | 231 kts | 307° |
| 2026-05-06 01:21 | 38.88437 | -77.18285 | 5209 ft | 230 kts | 307° |
| 2026-05-06 01:21 | 38.89585 | -77.19713 | 4930 ft | 230 kts | 307° |
| 2026-05-06 01:21 | 38.90723 | -77.21122 | 4756 ft | 227 kts | 307° |
| 2026-05-06 01:21 | 38.91847 | -77.22509 | 4373 ft | 225 kts | 306° |
| 2026-05-06 01:22 | 38.92973 | -77.23915 | 3923 ft | 227 kts | 306° |
| 2026-05-06 01:22 | 38.94081 | -77.25298 | 3594 ft | 227 kts | 307° |
| 2026-05-06 01:22 | 38.95336 | -77.26590 | 3311 ft | 238 kts | 326° |
| 2026-05-06 01:22 | 38.96963 | -77.27013 | 3166 ft | 244 kts | 0° |
| 2026-05-06 01:23 | 38.98534 | -77.26321 | 3071 ft | 239 kts | 36° |
| 2026-05-06 01:23 | 38.99703 | -77.24881 | 2998 ft | 227 kts | 50° |
| 2026-05-06 01:23 | 39.00662 | -77.23216 | 2693 ft | 237 kts | 71° |
| 2026-05-06 01:23 | 39.00780 | -77.21255 | 2453 ft | 213 kts | 117° |
| 2026-05-06 01:24 | 39.00490 | -77.20395 | 2222 ft | 210 kts | 130° |
| 2026-05-06 01:24 | 39.00188 | -77.19822 | 2047 ft | 209 kts | 138° |
| 2026-05-06 01:24 | 38.99234 | -77.18449 | 1714 ft | 201 kts | 141° |
| 2026-05-06 01:24 | 38.98370 | -77.17170 | 1557 ft | 184 kts | 139° |
| 2026-05-06 01:25 | 38.97540 | -77.15920 | 1374 ft | 186 kts | 142° |
| 2026-05-06 01:25 | 38.96637 | -77.14774 | 1239 ft | 175 kts | 148° |
| 2026-05-06 01:25 | 38.95665 | -77.13869 | 1032 ft | 183 kts | 152° |
| 2026-05-06 01:25 | 38.94573 | -77.12997 | 918 ft | 185 kts | 151° |
| 2026-05-06 01:26 | 38.93642 | -77.12146 | 1070 ft | 144 kts | 150° |
| 2026-05-06 01:26 | 38.92920 | -77.11440 | 1039 ft | 124 kts | 151° |
| 2026-05-06 01:26 | 38.92213 | -77.10785 | 913 ft | 127 kts | 150° |
| 2026-05-06 01:26 | 38.91536 | -77.10030 | 834 ft | 124 kts | 140° |
| 2026-05-06 01:27 | 38.90994 | -77.09120 | 996 ft | 134 kts | 123° |
| 2026-05-06 01:27 | 38.90678 | -77.07995 | 950 ft | 135 kts | 111° |
| 2026-05-06 01:27 | 38.90334 | -77.06916 | 892 ft | 132 kts | 131° |
| 2026-05-06 01:27 | 38.89735 | -77.06018 | 841 ft | 130 kts | 141° |
| 2026-05-06 01:28 | 38.89111 | -77.05214 | 775 ft | 128 kts | 142° |
| 2026-05-06 01:28 | 38.88455 | -77.04498 | 594 ft | 121 kts | 150° |
| 2026-05-06 01:28 | 38.87706 | -77.04056 | 422 ft | 122 kts | 168° |
| 2026-05-06 01:28 | 38.86869 | -77.03936 | 212 ft | 120 kts | 176° |
| 2026-05-06 01:29 | 38.86035 | -77.03860 | 49 ft | 119 kts | 178° |
| 2026-05-06 01:29 | 38.85296 | -77.03791 | 27 ft | 84 kts | 176° |
| 2026-05-06 01:29 | 38.85002 | -77.03768 | 25 ft | 40 kts | 177° |
| 2026-05-06 01:29 | 38.84904 | -77.03786 | 24 ft | 8 kts | 210° |
| 2026-05-06 01:30 | 38.84880 | -77.03829 | 23 ft | 1 kts | 265° |
| 2026-05-06 01:30 | 38.84879 | -77.03848 | 25 ft | 0 kts | 265° |
| 2026-05-06 01:31 | 38.84878 | -77.03854 | 23 ft | 3 kts | 265° |
| 2026-05-06 01:31 | 38.84875 | -77.03920 | 24 ft | 7 kts | 271° |
| 2026-05-06 01:31 | 38.84914 | -77.03953 | 27 ft | 8 kts | 354° |
| 2026-05-06 01:31 | 38.84960 | -77.03957 | 26 ft | 11 kts | 355° |
| 2026-05-06 01:32 | 38.85054 | -77.03966 | 25 ft | 16 kts | 355° |
| 2026-05-06 01:32 | 38.85178 | -77.03979 | 25 ft | 20 kts | 355° |
| 2026-05-06 01:32 | 38.85315 | -77.03993 | 25 ft | 3 kts | 355° |
| 2026-05-06 01:32 | 38.85327 | -77.03994 | 25 ft | 4 kts | 355° |
| 2026-05-06 01:33 | 38.85370 | -77.03998 | 25 ft | 8 kts | 356° |
| 2026-05-06 01:33 | 38.85443 | -77.04005 | 27 ft | 11 kts | 355° |
| 2026-05-06 01:33 | 38.85462 | -77.04007 | 25 ft | 3 kts | 354° |
| 2026-05-06 01:33 | 38.85463 | -77.04007 | 25 ft | 0 kts | 354° |
| 2026-05-06 01:34 | 38.85485 | -77.04010 | 25 ft | 7 kts | 354° |
| 2026-05-06 01:34 | 38.85506 | -77.04015 | 26 ft | 1 kts | 345° |
| 2026-05-06 01:34 | 38.85534 | -77.04025 | 26 ft | 7 kts | 345° |
| 2026-05-06 01:35 | 38.85547 | -77.04029 | 27 ft | 2 kts | 345° |
| 2026-05-06 01:35 | 38.85587 | -77.04037 | 28 ft | 9 kts | 351° |
| 2026-05-06 01:35 | 38.85473 | -77.04014 | 25 ft | 0 kts | 351° |